sensor_id;sensor_type;location;lat;lon;timestamp;P1;durP1;ratioP1;P2;durP2;ratioP2
13584;SDS011;6863;48.402;9.994;2023-07-08T00:01:11;9.02;;;7.10;;
13584;SDS011;6863;48.402;9.994;2023-07-08T00:03:38;8.77;;;7.75;;
13584;SDS011;6863;48.402;9.994;2023-07-08T00:06:04;9.10;;;7.20;;
13584;SDS011;6863;48.402;9.994;2023-07-08T00:08:32;11.55;;;8.15;;
13584;SDS011;6863;48.402;9.994;2023-07-08T00:10:59;8.35;;;7.47;;
13584;SDS011;6863;48.402;9.994;2023-07-08T00:13:24;8.90;;;7.45;;
13584;SDS011;6863;48.402;9.994;2023-07-08T00:15:50;9.30;;;7.50;;
13584;SDS011;6863;48.402;9.994;2023-07-08T00:18:17;9.52;;;7.43;;
13584;SDS011;6863;48.402;9.994;2023-07-08T00:20:49;7.82;;;6.80;;
13584;SDS011;6863;48.402;9.994;2023-07-08T00:23:15;8.82;;;7.13;;
13584;SDS011;6863;48.402;9.994;2023-07-08T00:25:41;9.55;;;7.93;;
13584;SDS011;6863;48.402;9.994;2023-07-08T00:28:08;10.18;;;8.40;;
13584;SDS011;6863;48.402;9.994;2023-07-08T00:30:39;8.35;;;7.35;;
13584;SDS011;6863;48.402;9.994;2023-07-08T00:33:05;8.30;;;7.40;;
13584;SDS011;6863;48.402;9.994;2023-07-08T00:40:50;9.18;;;7.85;;
13584;SDS011;6863;48.402;9.994;2023-07-08T00:43:19;8.20;;;7.18;;
13584;SDS011;6863;48.402;9.994;2023-07-08T00:45:51;8.80;;;7.70;;
13584;SDS011;6863;48.402;9.994;2023-07-08T00:48:28;9.38;;;8.10;;
13584;SDS011;6863;48.402;9.994;2023-07-08T00:50:57;8.13;;;7.25;;
13584;SDS011;6863;48.402;9.994;2023-07-08T00:56:00;8.82;;;7.70;;
13584;SDS011;6863;48.402;9.994;2023-07-08T00:58:41;10.07;;;7.55;;
13584;SDS011;6863;48.402;9.994;2023-07-08T01:01:10;9.52;;;7.25;;
13584;SDS011;6863;48.402;9.994;2023-07-08T01:03:39;9.63;;;7.88;;
13584;SDS011;6863;48.402;9.994;2023-07-08T01:06:10;10.65;;;7.50;;
13584;SDS011;6863;48.402;9.994;2023-07-08T01:08:36;10.90;;;7.93;;
13584;SDS011;6863;48.402;9.994;2023-07-08T01:11:02;10.00;;;7.78;;
13584;SDS011;6863;48.402;9.994;2023-07-08T01:13:31;10.02;;;7.60;;
13584;SDS011;6863;48.402;9.994;2023-07-08T01:16:01;10.65;;;8.05;;
13584;SDS011;6863;48.402;9.994;2023-07-08T01:18:28;10.70;;;8.20;;
13584;SDS011;6863;48.402;9.994;2023-07-08T01:20:54;8.18;;;7.38;;
13584;SDS011;6863;48.402;9.994;2023-07-08T01:23:22;8.05;;;7.18;;
13584;SDS011;6863;48.402;9.994;2023-07-08T01:25:49;9.10;;;7.97;;
13584;SDS011;6863;48.402;9.994;2023-07-08T01:28:15;8.20;;;7.40;;
13584;SDS011;6863;48.402;9.994;2023-07-08T01:30:41;8.38;;;6.95;;
13584;SDS011;6863;48.402;9.994;2023-07-08T01:33:12;10.98;;;7.18;;
13584;SDS011;6863;48.402;9.994;2023-07-08T01:35:43;8.38;;;7.15;;
13584;SDS011;6863;48.402;9.994;2023-07-08T01:38:09;9.13;;;7.53;;
13584;SDS011;6863;48.402;9.994;2023-07-08T01:40:47;8.70;;;7.47;;
13584;SDS011;6863;48.402;9.994;2023-07-08T01:43:17;7.88;;;7.10;;
13584;SDS011;6863;48.402;9.994;2023-07-08T01:45:43;8.75;;;7.05;;
13584;SDS011;6863;48.402;9.994;2023-07-08T01:48:10;9.52;;;7.38;;
13584;SDS011;6863;48.402;9.994;2023-07-08T01:50:39;8.40;;;6.88;;
13584;SDS011;6863;48.402;9.994;2023-07-08T01:53:11;8.15;;;7.35;;
13584;SDS011;6863;48.402;9.994;2023-07-08T01:55:40;7.93;;;6.38;;
13584;SDS011;6863;48.402;9.994;2023-07-08T01:58:05;7.82;;;6.85;;
13584;SDS011;6863;48.402;9.994;2023-07-08T02:00:31;7.70;;;7.00;;
13584;SDS011;6863;48.402;9.994;2023-07-08T02:05:22;8.52;;;7.15;;
13584;SDS011;6863;48.402;9.994;2023-07-08T02:07:48;8.35;;;6.72;;
13584;SDS011;6863;48.402;9.994;2023-07-08T02:10:14;9.02;;;6.68;;
13584;SDS011;6863;48.402;9.994;2023-07-08T02:12:40;12.52;;;7.85;;
13584;SDS011;6863;48.402;9.994;2023-07-08T02:15:06;8.60;;;7.72;;
13584;SDS011;6863;48.402;9.994;2023-07-08T02:17:33;8.05;;;7.22;;
13584;SDS011;6863;48.402;9.994;2023-07-08T02:19:58;9.73;;;7.60;;
13584;SDS011;6863;48.402;9.994;2023-07-08T02:22:24;9.18;;;7.70;;
13584;SDS011;6863;48.402;9.994;2023-07-08T02:24:49;9.35;;;7.82;;
13584;SDS011;6863;48.402;9.994;2023-07-08T02:27:15;9.75;;;7.72;;
13584;SDS011;6863;48.402;9.994;2023-07-08T02:29:41;12.27;;;7.70;;
13584;SDS011;6863;48.402;9.994;2023-07-08T02:32:08;8.15;;;7.13;;
13584;SDS011;6863;48.402;9.994;2023-07-08T02:34:37;9.68;;;7.47;;
13584;SDS011;6863;48.402;9.994;2023-07-08T02:37:03;9.65;;;7.85;;
13584;SDS011;6863;48.402;9.994;2023-07-08T02:39:28;8.35;;;7.53;;
13584;SDS011;6863;48.402;9.994;2023-07-08T02:41:54;10.05;;;6.97;;
13584;SDS011;6863;48.402;9.994;2023-07-08T02:44:20;8.75;;;7.82;;
13584;SDS011;6863;48.402;9.994;2023-07-08T02:46:45;8.30;;;7.18;;
13584;SDS011;6863;48.402;9.994;2023-07-08T02:49:11;8.90;;;7.15;;
13584;SDS011;6863;48.402;9.994;2023-07-08T02:51:36;8.27;;;7.45;;
13584;SDS011;6863;48.402;9.994;2023-07-08T02:54:02;8.18;;;7.38;;
13584;SDS011;6863;48.402;9.994;2023-07-08T02:56:28;12.32;;;7.13;;
13584;SDS011;6863;48.402;9.994;2023-07-08T02:58:54;11.80;;;7.55;;
13584;SDS011;6863;48.402;9.994;2023-07-08T03:01:19;10.32;;;8.00;;
13584;SDS011;6863;48.402;9.994;2023-07-08T03:03:48;9.73;;;7.95;;
13584;SDS011;6863;48.402;9.994;2023-07-08T03:06:14;10.52;;;7.40;;
13584;SDS011;6863;48.402;9.994;2023-07-08T03:08:40;11.60;;;8.15;;
13584;SDS011;6863;48.402;9.994;2023-07-08T03:11:06;12.57;;;8.73;;
13584;SDS011;6863;48.402;9.994;2023-07-08T03:13:33;10.30;;;7.80;;
13584;SDS011;6863;48.402;9.994;2023-07-08T03:15:59;8.70;;;7.80;;
13584;SDS011;6863;48.402;9.994;2023-07-08T03:18:26;12.45;;;8.18;;
13584;SDS011;6863;48.402;9.994;2023-07-08T03:20:53;11.65;;;8.20;;
13584;SDS011;6863;48.402;9.994;2023-07-08T03:23:20;11.30;;;8.00;;
13584;SDS011;6863;48.402;9.994;2023-07-08T03:25:47;10.85;;;8.77;;
13584;SDS011;6863;48.402;9.994;2023-07-08T03:28:13;10.65;;;8.38;;
13584;SDS011;6863;48.402;9.994;2023-07-08T03:30:43;10.70;;;8.38;;
13584;SDS011;6863;48.402;9.994;2023-07-08T03:33:10;8.52;;;7.63;;
13584;SDS011;6863;48.402;9.994;2023-07-08T03:35:37;8.93;;;8.02;;
13584;SDS011;6863;48.402;9.994;2023-07-08T03:38:03;9.60;;;8.05;;
13584;SDS011;6863;48.402;9.994;2023-07-08T03:40:30;12.98;;;8.85;;
13584;SDS011;6863;48.402;9.994;2023-07-08T03:42:56;13.02;;;8.60;;
13584;SDS011;6863;48.402;9.994;2023-07-08T03:45:22;12.88;;;8.95;;
13584;SDS011;6863;48.402;9.994;2023-07-08T03:47:48;10.77;;;9.10;;
13584;SDS011;6863;48.402;9.994;2023-07-08T03:50:18;11.95;;;9.52;;
13584;SDS011;6863;48.402;9.994;2023-07-08T03:52:49;10.50;;;8.27;;
13584;SDS011;6863;48.402;9.994;2023-07-08T03:55:17;14.32;;;9.20;;
13584;SDS011;6863;48.402;9.994;2023-07-08T03:57:43;13.05;;;9.38;;
13584;SDS011;6863;48.402;9.994;2023-07-08T04:00:09;13.02;;;8.60;;
13584;SDS011;6863;48.402;9.994;2023-07-08T04:02:37;12.07;;;8.98;;
13584;SDS011;6863;48.402;9.994;2023-07-08T04:05:03;11.40;;;9.23;;
13584;SDS011;6863;48.402;9.994;2023-07-08T04:07:29;11.93;;;9.27;;
13584;SDS011;6863;48.402;9.994;2023-07-08T04:09:55;11.40;;;9.13;;
13584;SDS011;6863;48.402;9.994;2023-07-08T04:12:21;10.07;;;8.90;;
13584;SDS011;6863;48.402;9.994;2023-07-08T04:14:46;10.65;;;9.18;;
13584;SDS011;6863;48.402;9.994;2023-07-08T04:17:12;12.48;;;9.13;;
13584;SDS011;6863;48.402;9.994;2023-07-08T04:19:38;14.95;;;10.73;;
13584;SDS011;6863;48.402;9.994;2023-07-08T04:22:04;18.67;;;10.65;;
13584;SDS011;6863;48.402;9.994;2023-07-08T04:24:31;13.50;;;9.98;;
13584;SDS011;6863;48.402;9.994;2023-07-08T04:26:56;12.85;;;9.70;;
13584;SDS011;6863;48.402;9.994;2023-07-08T04:29:23;12.63;;;9.77;;
13584;SDS011;6863;48.402;9.994;2023-07-08T04:31:49;12.07;;;9.25;;
13584;SDS011;6863;48.402;9.994;2023-07-08T04:34:15;11.85;;;9.82;;
13584;SDS011;6863;48.402;9.994;2023-07-08T04:36:41;11.82;;;9.30;;
13584;SDS011;6863;48.402;9.994;2023-07-08T04:39:07;12.32;;;9.55;;
13584;SDS011;6863;48.402;9.994;2023-07-08T04:41:35;11.18;;;9.15;;
13584;SDS011;6863;48.402;9.994;2023-07-08T04:44:05;10.23;;;9.13;;
13584;SDS011;6863;48.402;9.994;2023-07-08T04:46:36;11.57;;;9.45;;
13584;SDS011;6863;48.402;9.994;2023-07-08T04:49:21;10.32;;;9.35;;
13584;SDS011;6863;48.402;9.994;2023-07-08T04:51:48;11.35;;;9.02;;
13584;SDS011;6863;48.402;9.994;2023-07-08T04:54:13;10.93;;;9.73;;
13584;SDS011;6863;48.402;9.994;2023-07-08T04:59:10;11.57;;;9.20;;
13584;SDS011;6863;48.402;9.994;2023-07-08T05:01:38;11.38;;;9.30;;
13584;SDS011;6863;48.402;9.994;2023-07-08T05:04:04;10.38;;;8.68;;
13584;SDS011;6863;48.402;9.994;2023-07-08T05:06:33;9.70;;;8.07;;
13584;SDS011;6863;48.402;9.994;2023-07-08T05:09:00;10.93;;;8.27;;
13584;SDS011;6863;48.402;9.994;2023-07-08T05:11:27;9.25;;;8.30;;
13584;SDS011;6863;48.402;9.994;2023-07-08T05:13:53;10.23;;;8.35;;
13584;SDS011;6863;48.402;9.994;2023-07-08T05:16:19;8.88;;;7.75;;
13584;SDS011;6863;48.402;9.994;2023-07-08T05:18:45;10.20;;;8.77;;
13584;SDS011;6863;48.402;9.994;2023-07-08T05:21:11;9.00;;;8.10;;
13584;SDS011;6863;48.402;9.994;2023-07-08T05:23:37;11.27;;;9.07;;
13584;SDS011;6863;48.402;9.994;2023-07-08T05:26:03;9.63;;;8.55;;
13584;SDS011;6863;48.402;9.994;2023-07-08T05:28:30;11.07;;;8.48;;
13584;SDS011;6863;48.402;9.994;2023-07-08T05:30:56;10.43;;;8.57;;
13584;SDS011;6863;48.402;9.994;2023-07-08T05:33:22;13.30;;;9.45;;
13584;SDS011;6863;48.402;9.994;2023-07-08T05:35:49;10.05;;;8.13;;
13584;SDS011;6863;48.402;9.994;2023-07-08T05:38:15;10.32;;;8.57;;
13584;SDS011;6863;48.402;9.994;2023-07-08T05:40:41;11.73;;;8.40;;
13584;SDS011;6863;48.402;9.994;2023-07-08T05:43:07;9.82;;;8.32;;
13584;SDS011;6863;48.402;9.994;2023-07-08T05:45:32;10.38;;;8.65;;
13584;SDS011;6863;48.402;9.994;2023-07-08T05:48:00;10.60;;;8.60;;
13584;SDS011;6863;48.402;9.994;2023-07-08T05:50:26;9.40;;;8.40;;
13584;SDS011;6863;48.402;9.994;2023-07-08T05:52:52;11.60;;;8.60;;
13584;SDS011;6863;48.402;9.994;2023-07-08T05:55:17;11.30;;;8.95;;
13584;SDS011;6863;48.402;9.994;2023-07-08T05:57:43;10.30;;;8.23;;
13584;SDS011;6863;48.402;9.994;2023-07-08T06:00:09;9.27;;;8.35;;
13584;SDS011;6863;48.402;9.994;2023-07-08T06:02:35;8.95;;;7.95;;
13584;SDS011;6863;48.402;9.994;2023-07-08T06:05:01;10.70;;;8.93;;
13584;SDS011;6863;48.402;9.994;2023-07-08T06:07:27;9.45;;;8.43;;
13584;SDS011;6863;48.402;9.994;2023-07-08T06:09:53;9.52;;;8.15;;
13584;SDS011;6863;48.402;9.994;2023-07-08T06:12:20;11.30;;;8.77;;
13584;SDS011;6863;48.402;9.994;2023-07-08T06:14:46;11.77;;;9.00;;
13584;SDS011;6863;48.402;9.994;2023-07-08T06:17:12;10.02;;;8.48;;
13584;SDS011;6863;48.402;9.994;2023-07-08T06:19:38;10.30;;;9.18;;
13584;SDS011;6863;48.402;9.994;2023-07-08T06:22:03;10.35;;;8.77;;
13584;SDS011;6863;48.402;9.994;2023-07-08T06:24:29;10.55;;;8.63;;
13584;SDS011;6863;48.402;9.994;2023-07-08T06:26:55;9.90;;;8.90;;
13584;SDS011;6863;48.402;9.994;2023-07-08T06:29:20;10.55;;;8.23;;
13584;SDS011;6863;48.402;9.994;2023-07-08T06:31:46;11.05;;;8.73;;
13584;SDS011;6863;48.402;9.994;2023-07-08T06:34:11;9.98;;;8.93;;
13584;SDS011;6863;48.402;9.994;2023-07-08T06:36:37;10.55;;;9.30;;
13584;SDS011;6863;48.402;9.994;2023-07-08T06:39:03;9.65;;;8.65;;
13584;SDS011;6863;48.402;9.994;2023-07-08T06:41:31;9.63;;;8.20;;
13584;SDS011;6863;48.402;9.994;2023-07-08T06:43:57;13.75;;;8.98;;
13584;SDS011;6863;48.402;9.994;2023-07-08T06:46:23;9.98;;;8.48;;
13584;SDS011;6863;48.402;9.994;2023-07-08T06:48:49;12.15;;;8.57;;
13584;SDS011;6863;48.402;9.994;2023-07-08T06:51:15;9.70;;;8.70;;
13584;SDS011;6863;48.402;9.994;2023-07-08T06:53:40;11.10;;;8.82;;
13584;SDS011;6863;48.402;9.994;2023-07-08T06:56:06;10.02;;;8.98;;
13584;SDS011;6863;48.402;9.994;2023-07-08T06:58:31;9.48;;;7.93;;
13584;SDS011;6863;48.402;9.994;2023-07-08T07:00:57;10.63;;;9.52;;
13584;SDS011;6863;48.402;9.994;2023-07-08T07:03:23;9.68;;;8.68;;
13584;SDS011;6863;48.402;9.994;2023-07-08T07:05:49;10.70;;;8.10;;
13584;SDS011;6863;48.402;9.994;2023-07-08T07:08:15;9.77;;;8.70;;
13584;SDS011;6863;48.402;9.994;2023-07-08T07:10:40;10.05;;;7.82;;
13584;SDS011;6863;48.402;9.994;2023-07-08T07:13:06;9.57;;;8.57;;
13584;SDS011;6863;48.402;9.994;2023-07-08T07:15:32;9.65;;;8.48;;
13584;SDS011;6863;48.402;9.994;2023-07-08T07:17:57;18.35;;;9.63;;
13584;SDS011;6863;48.402;9.994;2023-07-08T07:20:24;12.13;;;8.88;;
13584;SDS011;6863;48.402;9.994;2023-07-08T07:22:50;11.77;;;9.65;;
13584;SDS011;6863;48.402;9.994;2023-07-08T07:25:16;9.45;;;8.18;;
13584;SDS011;6863;48.402;9.994;2023-07-08T07:27:42;9.50;;;8.60;;
13584;SDS011;6863;48.402;9.994;2023-07-08T07:30:08;11.98;;;8.82;;
13584;SDS011;6863;48.402;9.994;2023-07-08T07:32:37;10.65;;;9.27;;
13584;SDS011;6863;48.402;9.994;2023-07-08T07:35:03;9.55;;;8.55;;
13584;SDS011;6863;48.402;9.994;2023-07-08T07:37:30;10.50;;;8.55;;
13584;SDS011;6863;48.402;9.994;2023-07-08T07:39:55;9.77;;;8.45;;
13584;SDS011;6863;48.402;9.994;2023-07-08T07:42:21;9.27;;;7.63;;
13584;SDS011;6863;48.402;9.994;2023-07-08T07:44:46;8.70;;;7.85;;
13584;SDS011;6863;48.402;9.994;2023-07-08T07:47:12;10.27;;;7.70;;
13584;SDS011;6863;48.402;9.994;2023-07-08T07:49:38;8.05;;;7.25;;
13584;SDS011;6863;48.402;9.994;2023-07-08T07:52:05;11.23;;;8.48;;
13584;SDS011;6863;48.402;9.994;2023-07-08T07:54:30;9.68;;;8.68;;
13584;SDS011;6863;48.402;9.994;2023-07-08T07:56:56;10.25;;;8.13;;
13584;SDS011;6863;48.402;9.994;2023-07-08T07:59:22;9.50;;;8.02;;
13584;SDS011;6863;48.402;9.994;2023-07-08T08:01:47;9.13;;;8.25;;
13584;SDS011;6863;48.402;9.994;2023-07-08T08:04:13;9.90;;;8.13;;
13584;SDS011;6863;48.402;9.994;2023-07-08T08:06:39;9.30;;;8.38;;
13584;SDS011;6863;48.402;9.994;2023-07-08T08:09:04;13.65;;;8.90;;
13584;SDS011;6863;48.402;9.994;2023-07-08T08:11:31;10.05;;;8.23;;
13584;SDS011;6863;48.402;9.994;2023-07-08T08:13:57;12.05;;;8.23;;
13584;SDS011;6863;48.402;9.994;2023-07-08T08:16:25;9.60;;;8.57;;
13584;SDS011;6863;48.402;9.994;2023-07-08T08:18:50;10.60;;;8.32;;
13584;SDS011;6863;48.402;9.994;2023-07-08T08:21:16;11.05;;;8.70;;
13584;SDS011;6863;48.402;9.994;2023-07-08T08:23:41;13.82;;;8.70;;
13584;SDS011;6863;48.402;9.994;2023-07-08T08:26:07;8.82;;;7.90;;
13584;SDS011;6863;48.402;9.994;2023-07-08T08:28:33;10.35;;;8.13;;
13584;SDS011;6863;48.402;9.994;2023-07-08T08:30:58;7.60;;;6.88;;
13584;SDS011;6863;48.402;9.994;2023-07-08T08:33:24;11.55;;;8.77;;
13584;SDS011;6863;48.402;9.994;2023-07-08T08:35:49;9.07;;;7.95;;
13584;SDS011;6863;48.402;9.994;2023-07-08T08:38:15;10.63;;;8.32;;
13584;SDS011;6863;48.402;9.994;2023-07-08T08:40:42;8.77;;;7.82;;
13584;SDS011;6863;48.402;9.994;2023-07-08T08:43:22;10.88;;;7.95;;
13584;SDS011;6863;48.402;9.994;2023-07-08T08:46:08;8.88;;;7.80;;
13584;SDS011;6863;48.402;9.994;2023-07-08T08:51:27;8.52;;;7.70;;
13584;SDS011;6863;48.402;9.994;2023-07-08T08:53:56;10.90;;;8.27;;
13584;SDS011;6863;48.402;9.994;2023-07-08T08:56:34;10.10;;;7.95;;
13584;SDS011;6863;48.402;9.994;2023-07-08T09:01:55;9.25;;;8.30;;
13584;SDS011;6863;48.402;9.994;2023-07-08T09:04:24;9.23;;;8.13;;
13584;SDS011;6863;48.402;9.994;2023-07-08T09:06:53;10.02;;;8.32;;
13584;SDS011;6863;48.402;9.994;2023-07-08T09:09:30;9.25;;;8.02;;
13584;SDS011;6863;48.402;9.994;2023-07-08T09:12:27;8.60;;;7.80;;
13584;SDS011;6863;48.402;9.994;2023-07-08T09:15:01;7.68;;;6.97;;
13584;SDS011;6863;48.402;9.994;2023-07-08T09:17:40;8.38;;;7.63;;
13584;SDS011;6863;48.402;9.994;2023-07-08T09:22:58;8.75;;;7.85;;
13584;SDS011;6863;48.402;9.994;2023-07-08T09:25:54;10.02;;;8.05;;
13584;SDS011;6863;48.402;9.994;2023-07-08T09:28:41;10.48;;;7.70;;
13584;SDS011;6863;48.402;9.994;2023-07-08T09:31:20;8.20;;;7.07;;
13584;SDS011;6863;48.402;9.994;2023-07-08T09:33:52;10.35;;;7.93;;
13584;SDS011;6863;48.402;9.994;2023-07-08T09:36:23;8.85;;;7.95;;
13584;SDS011;6863;48.402;9.994;2023-07-08T09:38:50;8.95;;;8.13;;
13584;SDS011;6863;48.402;9.994;2023-07-08T09:41:28;7.97;;;7.18;;
13584;SDS011;6863;48.402;9.994;2023-07-08T09:44:05;8.90;;;7.57;;
13584;SDS011;6863;48.402;9.994;2023-07-08T09:46:42;8.15;;;7.35;;
13584;SDS011;6863;48.402;9.994;2023-07-08T09:49:09;7.07;;;6.38;;
13584;SDS011;6863;48.402;9.994;2023-07-08T09:51:47;8.25;;;6.97;;
13584;SDS011;6863;48.402;9.994;2023-07-08T09:54:17;8.13;;;7.32;;
13584;SDS011;6863;48.402;9.994;2023-07-08T09:56:47;9.80;;;7.10;;
13584;SDS011;6863;48.402;9.994;2023-07-08T09:59:17;8.18;;;7.38;;
13584;SDS011;6863;48.402;9.994;2023-07-08T10:01:46;9.27;;;7.45;;
13584;SDS011;6863;48.402;9.994;2023-07-08T10:04:13;7.90;;;6.40;;
13584;SDS011;6863;48.402;9.994;2023-07-08T10:06:38;9.82;;;6.72;;
13584;SDS011;6863;48.402;9.994;2023-07-08T10:09:08;10.85;;;7.43;;
13584;SDS011;6863;48.402;9.994;2023-07-08T10:11:39;10.18;;;8.65;;
13584;SDS011;6863;48.402;9.994;2023-07-08T10:14:22;9.73;;;6.85;;
13584;SDS011;6863;48.402;9.994;2023-07-08T10:16:52;7.97;;;6.50;;
13584;SDS011;6863;48.402;9.994;2023-07-08T10:19:18;7.25;;;6.55;;
13584;SDS011;6863;48.402;9.994;2023-07-08T10:24:45;6.20;;;5.60;;
13584;SDS011;6863;48.402;9.994;2023-07-08T10:27:35;5.22;;;4.75;;
13584;SDS011;6863;48.402;9.994;2023-07-08T10:30:23;5.20;;;4.70;;
13584;SDS011;6863;48.402;9.994;2023-07-08T10:35:40;4.75;;;4.35;;
13584;SDS011;6863;48.402;9.994;2023-07-08T10:41:09;4.25;;;3.88;;
13584;SDS011;6863;48.402;9.994;2023-07-08T10:43:57;5.28;;;3.95;;
13584;SDS011;6863;48.402;9.994;2023-07-08T10:46:37;4.22;;;3.83;;
13584;SDS011;6863;48.402;9.994;2023-07-08T10:49:37;5.53;;;3.78;;
13584;SDS011;6863;48.402;9.994;2023-07-08T11:00:22;4.97;;;4.47;;
13584;SDS011;6863;48.402;9.994;2023-07-08T11:14:17;5.63;;;4.00;;
13584;SDS011;6863;48.402;9.994;2023-07-08T11:20:03;5.85;;;4.38;;
13584;SDS011;6863;48.402;9.994;2023-07-08T11:22:49;4.38;;;3.97;;
13584;SDS011;6863;48.402;9.994;2023-07-08T11:25:26;4.80;;;4.28;;
13584;SDS011;6863;48.402;9.994;2023-07-08T11:27:54;4.50;;;4.00;;
13584;SDS011;6863;48.402;9.994;2023-07-08T11:30:24;5.00;;;4.15;;
13584;SDS011;6863;48.402;9.994;2023-07-08T11:32:58;4.65;;;3.97;;
13584;SDS011;6863;48.402;9.994;2023-07-08T11:38:05;3.80;;;3.50;;
13584;SDS011;6863;48.402;9.994;2023-07-08T11:40:38;3.72;;;3.42;;
13584;SDS011;6863;48.402;9.994;2023-07-08T11:43:16;4.07;;;3.78;;
13584;SDS011;6863;48.402;9.994;2023-07-08T11:45:42;4.22;;;3.80;;
13584;SDS011;6863;48.402;9.994;2023-07-08T11:48:15;4.75;;;3.67;;
13584;SDS011;6863;48.402;9.994;2023-07-08T11:50:44;3.88;;;3.53;;
13584;SDS011;6863;48.402;9.994;2023-07-08T11:55:59;3.67;;;3.40;;
13584;SDS011;6863;48.402;9.994;2023-07-08T12:03:55;4.43;;;3.97;;
13584;SDS011;6863;48.402;9.994;2023-07-08T12:08:52;4.05;;;3.40;;
13584;SDS011;6863;48.402;9.994;2023-07-08T12:11:18;4.22;;;3.83;;
13584;SDS011;6863;48.402;9.994;2023-07-08T12:13:52;3.60;;;3.35;;
13584;SDS011;6863;48.402;9.994;2023-07-08T12:16:23;4.32;;;3.65;;
13584;SDS011;6863;48.402;9.994;2023-07-08T12:18:51;5.05;;;4.00;;
13584;SDS011;6863;48.402;9.994;2023-07-08T12:21:22;4.93;;;3.90;;
13584;SDS011;6863;48.402;9.994;2023-07-08T12:23:51;4.38;;;3.80;;
13584;SDS011;6863;48.402;9.994;2023-07-08T12:26:17;3.63;;;3.33;;
13584;SDS011;6863;48.402;9.994;2023-07-08T12:28:43;6.13;;;4.20;;
13584;SDS011;6863;48.402;9.994;2023-07-08T12:31:19;3.47;;;3.28;;
13584;SDS011;6863;48.402;9.994;2023-07-08T12:33:49;4.25;;;3.80;;
13584;SDS011;6863;48.402;9.994;2023-07-08T12:36:17;4.45;;;3.60;;
13584;SDS011;6863;48.402;9.994;2023-07-08T12:38:50;4.28;;;3.88;;
13584;SDS011;6863;48.402;9.994;2023-07-08T12:41:18;4.22;;;3.83;;
13584;SDS011;6863;48.402;9.994;2023-07-08T12:43:49;4.60;;;4.07;;
13584;SDS011;6863;48.402;9.994;2023-07-08T12:46:16;5.38;;;4.18;;
13584;SDS011;6863;48.402;9.994;2023-07-08T12:48:44;4.07;;;3.78;;
13584;SDS011;6863;48.402;9.994;2023-07-08T12:51:11;5.10;;;3.80;;
13584;SDS011;6863;48.402;9.994;2023-07-08T12:53:39;4.35;;;3.85;;
13584;SDS011;6863;48.402;9.994;2023-07-08T12:56:05;4.80;;;4.20;;
13584;SDS011;6863;48.402;9.994;2023-07-08T12:58:32;5.35;;;4.70;;
13584;SDS011;6863;48.402;9.994;2023-07-08T13:01:01;4.80;;;4.30;;
13584;SDS011;6863;48.402;9.994;2023-07-08T13:03:30;4.35;;;3.97;;
13584;SDS011;6863;48.402;9.994;2023-07-08T13:05:59;4.40;;;3.70;;
13584;SDS011;6863;48.402;9.994;2023-07-08T13:08:29;4.20;;;3.80;;
13584;SDS011;6863;48.402;9.994;2023-07-08T13:10:59;4.28;;;3.80;;
13584;SDS011;6863;48.402;9.994;2023-07-08T13:13:30;4.07;;;3.78;;
13584;SDS011;6863;48.402;9.994;2023-07-08T13:15:59;4.13;;;3.80;;
13584;SDS011;6863;48.402;9.994;2023-07-08T13:18:33;4.43;;;3.30;;
13584;SDS011;6863;48.402;9.994;2023-07-08T13:21:00;4.90;;;3.55;;
13584;SDS011;6863;48.402;9.994;2023-07-08T13:23:28;4.60;;;4.10;;
13584;SDS011;6863;48.402;9.994;2023-07-08T13:25:54;4.22;;;3.35;;
13584;SDS011;6863;48.402;9.994;2023-07-08T13:28:24;3.60;;;3.30;;
13584;SDS011;6863;48.402;9.994;2023-07-08T13:30:59;3.67;;;3.38;;
13584;SDS011;6863;48.402;9.994;2023-07-08T13:33:33;4.15;;;3.50;;
13584;SDS011;6863;48.402;9.994;2023-07-08T13:36:03;3.40;;;3.10;;
13584;SDS011;6863;48.402;9.994;2023-07-08T13:38:37;3.90;;;3.60;;
13584;SDS011;6863;48.402;9.994;2023-07-08T13:41:04;4.28;;;3.25;;
13584;SDS011;6863;48.402;9.994;2023-07-08T13:43:33;3.40;;;3.10;;
13584;SDS011;6863;48.402;9.994;2023-07-08T13:46:03;3.40;;;3.10;;
13584;SDS011;6863;48.402;9.994;2023-07-08T13:48:37;2.80;;;2.60;;
13584;SDS011;6863;48.402;9.994;2023-07-08T13:51:10;3.42;;;3.13;;
13584;SDS011;6863;48.402;9.994;2023-07-08T13:56:27;3.47;;;3.17;;
13584;SDS011;6863;48.402;9.994;2023-07-08T13:59:04;4.22;;;3.17;;
13584;SDS011;6863;48.402;9.994;2023-07-08T14:01:33;3.47;;;3.17;;
13584;SDS011;6863;48.402;9.994;2023-07-08T14:04:00;3.53;;;3.22;;
13584;SDS011;6863;48.402;9.994;2023-07-08T14:06:31;4.15;;;3.75;;
13584;SDS011;6863;48.402;9.994;2023-07-08T14:09:03;4.32;;;3.70;;
13584;SDS011;6863;48.402;9.994;2023-07-08T14:11:39;4.45;;;3.40;;
13584;SDS011;6863;48.402;9.994;2023-07-08T14:14:06;3.50;;;3.20;;
13584;SDS011;6863;48.402;9.994;2023-07-08T14:16:34;4.97;;;3.22;;
13584;SDS011;6863;48.402;9.994;2023-07-08T14:19:02;5.13;;;3.70;;
13584;SDS011;6863;48.402;9.994;2023-07-08T14:21:30;4.43;;;3.25;;
13584;SDS011;6863;48.402;9.994;2023-07-08T14:23:57;4.32;;;3.20;;
13584;SDS011;6863;48.402;9.994;2023-07-08T14:26:23;4.72;;;3.25;;
13584;SDS011;6863;48.402;9.994;2023-07-08T14:28:49;5.13;;;3.78;;
13584;SDS011;6863;48.402;9.994;2023-07-08T14:31:15;5.00;;;4.25;;
13584;SDS011;6863;48.402;9.994;2023-07-08T14:33:46;8.35;;;6.38;;
13584;SDS011;6863;48.402;9.994;2023-07-08T14:36:14;4.10;;;2.88;;
13584;SDS011;6863;48.402;9.994;2023-07-08T14:38:40;3.30;;;3.00;;
13584;SDS011;6863;48.402;9.994;2023-07-08T14:41:06;3.85;;;3.35;;
13584;SDS011;6863;48.402;9.994;2023-07-08T14:43:32;3.10;;;2.80;;
13584;SDS011;6863;48.402;9.994;2023-07-08T14:45:59;4.53;;;3.13;;
13584;SDS011;6863;48.402;9.994;2023-07-08T14:48:30;4.47;;;3.13;;
13584;SDS011;6863;48.402;9.994;2023-07-08T14:50:57;10.30;;;5.07;;
13584;SDS011;6863;48.402;9.994;2023-07-08T14:53:23;5.03;;;3.83;;
13584;SDS011;6863;48.402;9.994;2023-07-08T14:55:49;4.00;;;3.00;;
13584;SDS011;6863;48.402;9.994;2023-07-08T14:58:21;3.83;;;3.25;;
13584;SDS011;6863;48.402;9.994;2023-07-08T15:00:53;4.25;;;3.33;;
13584;SDS011;6863;48.402;9.994;2023-07-08T15:03:21;36.25;;;21.27;;
13584;SDS011;6863;48.402;9.994;2023-07-08T15:05:47;6.00;;;3.05;;
13584;SDS011;6863;48.402;9.994;2023-07-08T15:08:13;8.93;;;5.47;;
13584;SDS011;6863;48.402;9.994;2023-07-08T15:10:46;16.20;;;9.82;;
13584;SDS011;6863;48.402;9.994;2023-07-08T15:13:14;4.18;;;2.90;;
13584;SDS011;6863;48.402;9.994;2023-07-08T15:15:41;4.90;;;3.42;;
13584;SDS011;6863;48.402;9.994;2023-07-08T15:18:12;3.15;;;2.88;;
13584;SDS011;6863;48.402;9.994;2023-07-08T15:20:39;2.97;;;2.70;;
13584;SDS011;6863;48.402;9.994;2023-07-08T15:23:06;4.20;;;2.80;;
13584;SDS011;6863;48.402;9.994;2023-07-08T15:25:33;3.33;;;3.00;;
13584;SDS011;6863;48.402;9.994;2023-07-08T15:27:59;4.80;;;3.30;;
13584;SDS011;6863;48.402;9.994;2023-07-08T15:30:29;3.40;;;3.10;;
13584;SDS011;6863;48.402;9.994;2023-07-08T15:32:56;3.10;;;2.80;;
13584;SDS011;6863;48.402;9.994;2023-07-08T15:35:24;5.03;;;3.30;;
13584;SDS011;6863;48.402;9.994;2023-07-08T15:37:55;4.38;;;3.72;;
13584;SDS011;6863;48.402;9.994;2023-07-08T15:40:21;3.72;;;2.70;;
13584;SDS011;6863;48.402;9.994;2023-07-08T15:42:49;4.35;;;2.95;;
13584;SDS011;6863;48.402;9.994;2023-07-08T15:45:25;2.78;;;2.58;;
13584;SDS011;6863;48.402;9.994;2023-07-08T15:47:52;3.13;;;2.72;;
13584;SDS011;6863;48.402;9.994;2023-07-08T15:50:19;3.85;;;2.53;;
13584;SDS011;6863;48.402;9.994;2023-07-08T15:52:46;6.18;;;4.70;;
13584;SDS011;6863;48.402;9.994;2023-07-08T15:55:12;6.03;;;5.45;;
13584;SDS011;6863;48.402;9.994;2023-07-08T15:57:49;7.95;;;6.35;;
13584;SDS011;6863;48.402;9.994;2023-07-08T16:00:27;3.42;;;3.10;;
13584;SDS011;6863;48.402;9.994;2023-07-08T16:05:25;5.57;;;4.05;;
13584;SDS011;6863;48.402;9.994;2023-07-08T16:07:53;16.08;;;9.18;;
13584;SDS011;6863;48.402;9.994;2023-07-08T16:10:20;6.93;;;4.53;;
13584;SDS011;6863;48.402;9.994;2023-07-08T16:12:47;5.50;;;4.47;;
13584;SDS011;6863;48.402;9.994;2023-07-08T16:15:14;5.50;;;3.63;;
13584;SDS011;6863;48.402;9.994;2023-07-08T16:17:42;5.70;;;3.63;;